Time;durP1;ratioP1;P1;durP2;ratioP2;P2;SDS_P1;SDS_P2;PMS_P1;PMS_P2;Temp;Humidity;BMP_temperature;BMP_pressure;BME280_temperature;BME280_humidity;BME280_pressure;Samples;Min_cycle;Max_cycle;Signal;HPM_P1;HPM_P2
2022/07/01 00:01:26;;;;;;;9.60;8.17;;;14.90;99.90;;;;;;2612742;54;20661;-75
2022/07/01 00:07:14;;;;;;;10.50;9.30;;;14.90;99.90;;;;;;2614339;54;20154;-74
2022/07/01 00:13:02;;;;;;;9.90;8.90;;;14.90;99.90;;;;;;2613102;54;20459;-75
2022/07/01 00:18:49;;;;;;;10.60;9.13;;;15.00;99.90;;;;;;2613650;54;20135;-75
2022/07/01 00:24:38;;;;;;;11.80;10.43;;;14.90;99.90;;;;;;2614532;54;20162;-76
2022/07/01 00:30:26;;;;;;;12.23;10.90;;;14.80;99.90;;;;;;2613856;54;20419;-75
2022/07/01 00:36:14;;;;;;;17.50;14.33;;;14.80;99.90;;;;;;2614488;39;20535;-74
2022/07/01 00:42:03;;;;;;;21.10;15.80;;;14.70;99.90;;;;;;2613005;54;20285;-76
2022/07/01 00:47:50;;;;;;;20.00;17.03;;;14.70;99.90;;;;;;2614563;54;20540;-76
2022/07/01 01:03:55;;;;;;;22.93;18.13;;;14.70;99.90;;;;;;2612312;54;20421;-75
2022/07/01 01:09:42;;;;;;;24.93;19.23;;;14.80;99.90;;;;;;2612532;54;20416;-74
2022/07/01 01:15:30;;;;;;;27.90;17.93;;;14.80;99.90;;;;;;2610632;54;20148;-74
2022/07/01 01:21:18;;;;;;;21.37;16.60;;;14.80;99.90;;;;;;2611534;54;20387;-73
2022/07/01 01:27:06;;;;;;;22.13;16.40;;;14.80;99.90;;;;;;2612878;54;20459;-74
2022/07/01 01:32:54;;;;;;;14.43;11.60;;;14.70;99.90;;;;;;2612011;54;20511;-74
2022/07/01 01:38:41;;;;;;;15.30;11.77;;;14.90;99.90;;;;;;2613817;54;21015;-75
2022/07/01 01:44:29;;;;;;;14.57;12.00;;;14.80;99.90;;;;;;2613035;54;20131;-74
2022/07/01 01:50:17;;;;;;;13.67;11.13;;;14.90;99.90;;;;;;2614471;54;20236;-74
2022/07/01 01:56:22;;;;;;;17.07;13.70;;;14.90;99.90;;;;;;2612288;54;20264;-75
2022/07/01 02:02:09;;;;;;;19.70;15.80;;;14.90;99.90;;;;;;2614239;54;21349;-75
2022/07/01 02:07:56;;;;;;;19.37;15.93;;;14.90;99.90;;;;;;2611082;54;20228;-76
2022/07/01 02:13:44;;;;;;;18.87;16.40;;;14.80;99.90;;;;;;2612400;54;20166;-76
2022/07/01 02:19:31;;;;;;;23.83;16.40;;;14.80;99.90;;;;;;2612283;39;20594;-75
2022/07/01 02:25:19;;;;;;;19.07;15.17;;;14.80;99.90;;;;;;2612926;54;20131;-74
2022/07/01 02:28:22;;;;;;;18.43;15.43;;;14.70;99.90;;;;;;2612655;54;20408;-74
2022/07/01 02:30:47;;;;;;;18.17;14.17;;;14.70;99.90;;;;;;2614588;54;20423;-74
2022/07/01 02:36:35;;;;;;;19.40;15.80;;;14.70;99.90;;;;;;2614952;39;20671;-74
2022/07/01 02:42:23;;;;;;;18.20;14.53;;;14.60;99.90;;;;;;2615450;54;20162;-74
2022/07/01 02:48:11;;;;;;;18.80;14.20;;;14.70;99.90;;;;;;2615121;46;20150;-74
2022/07/01 03:07:40;;;;;;;21.60;14.23;;;14.50;99.90;;;;;;2613505;54;20396;-74
2022/07/01 03:13:27;;;;;;;20.70;14.07;;;14.30;99.90;;;;;;2611733;54;20390;-74
2022/07/01 03:19:15;;;;;;;18.73;12.90;;;14.40;99.90;;;;;;2612898;39;20228;-74
2022/07/01 03:25:03;;;;;;;17.10;14.03;;;14.40;99.90;;;;;;2612010;54;20124;-73
2022/07/01 03:30:50;;;;;;;18.80;12.30;;;14.50;99.90;;;;;;2614119;39;20454;-75
2022/07/01 03:36:37;;;;;;;16.60;12.10;;;14.30;99.90;;;;;;2614348;54;20130;-74
2022/07/01 03:42:24;;;;;;;17.90;11.80;;;14.30;99.90;;;;;;2613741;54;20150;-73
2022/07/01 03:48:12;;;;;;;20.00;13.27;;;14.30;99.90;;;;;;2615308;46;20136;-73
2022/07/01 04:04:16;;;;;;;13.50;10.20;;;14.40;99.90;;;;;;2613756;54;20464;-74
2022/07/01 04:10:04;;;;;;;20.63;13.03;;;14.40;99.90;;;;;;2613327;39;20768;-74
2022/07/01 04:15:51;;;;;;;17.50;11.43;;;14.40;99.90;;;;;;2609781;54;20391;-73
2022/07/01 04:27:44;;;;;;;17.93;11.60;;;14.50;99.90;;;;;;2612744;54;20429;-73
2022/07/01 04:33:32;;;;;;;18.00;11.93;;;14.60;99.90;;;;;;2613748;54;20181;-74
2022/07/01 04:39:19;;;;;;;16.47;11.40;;;14.70;99.90;;;;;;2613627;54;20130;-74
2022/07/01 04:45:10;;;;;;;12.83;10.50;;;14.80;99.90;;;;;;2613996;46;20137;-73
2022/07/01 04:50:57;;;;;;;14.30;9.87;;;14.70;99.90;;;;;;2612226;54;20518;-75
2022/07/01 05:00:08;;;;;;;14.57;10.57;;;14.80;99.90;;;;;;2613305;54;20479;-74
2022/07/01 05:05:55;;;;;;;13.30;9.93;;;14.80;99.90;;;;;;2612572;54;20451;-74
2022/07/01 05:11:43;;;;;;;13.43;10.33;;;14.90;99.90;;;;;;2613788;54;20134;-73
2022/07/01 05:23:37;;;;;;;19.50;14.33;;;14.80;99.90;;;;;;2614638;54;20399;-76
2022/07/01 05:29:25;;;;;;;18.27;11.07;;;14.90;99.90;;;;;;2613845;54;20667;-75
2022/07/01 05:35:14;;;;;;;16.97;9.60;;;15.10;99.90;;;;;;2614145;54;20417;-74
2022/07/01 05:41:01;;;;;;;14.53;12.23;;;15.10;99.90;;;;;;2613984;39;20786;-74
2022/07/01 05:46:49;;;;;;;13.50;9.87;;;15.20;99.90;;;;;;2612421;54;20616;-76
2022/07/01 05:52:37;;;;;;;13.90;11.50;;;15.10;99.90;;;;;;2613155;54;20163;-73
2022/07/01 05:58:40;;;;;;;16.83;12.50;;;15.00;99.90;;;;;;2613548;39;20797;-74
2022/07/01 06:04:27;;;;;;;15.97;10.90;;;15.30;99.90;;;;;;2608986;54;20159;-75
2022/07/01 06:10:15;;;;;;;11.10;9.87;;;15.50;99.90;;;;;;2608655;54;20725;-75
2022/07/01 06:16:02;;;;;;;11.90;10.70;;;15.50;99.90;;;;;;2608287;54;20170;-74
2022/07/01 06:21:49;;;;;;;18.77;13.17;;;15.40;99.90;;;;;;2609113;54;20520;-75
2022/07/01 06:30:59;;;;;;;13.40;11.73;;;15.50;99.90;;;;;;2609275;54;20500;-74
2022/07/01 06:36:46;;;;;;;17.63;13.60;;;15.60;99.90;;;;;;2610204;54;20200;-74
2022/07/01 06:42:34;;;;;;;17.40;14.17;;;15.80;99.90;;;;;;2610491;54;20261;-76
2022/07/01 06:48:22;;;;;;;15.27;13.67;;;16.30;99.90;;;;;;2610890;54;20151;-75
2022/07/01 06:54:10;;;;;;;18.20;16.50;;;16.30;99.90;;;;;;2610941;54;20180;-76
2022/07/01 06:59:58;;;;;;;17.33;15.40;;;16.10;99.90;;;;;;2610990;54;20136;-74
2022/07/01 07:05:46;;;;;;;20.93;15.20;;;16.30;99.90;;;;;;2614441;54;20228;-77
2022/07/01 07:11:33;;;;;;;18.00;15.10;;;16.10;99.90;;;;;;2612566;54;20135;-76
2022/07/01 07:17:20;;;;;;;14.03;12.83;;;16.30;99.90;;;;;;2613128;54;20151;-75
2022/07/01 07:26:29;;;;;;;11.37;10.17;;;18.20;99.90;;;;;;2613883;46;20404;-76
2022/07/01 07:32:16;;;;;;;12.27;11.07;;;18.90;99.90;;;;;;2613892;54;20158;-75
2022/07/01 07:38:03;;;;;;;12.47;11.27;;;19.10;99.90;;;;;;2613412;54;20263;-75
2022/07/01 07:43:51;;;;;;;13.97;12.57;;;18.30;99.90;;;;;;2614608;54;20133;-75
2022/07/01 07:49:39;;;;;;;12.80;11.63;;;17.40;99.90;;;;;;2614735;54;20249;-76
2022/07/01 07:55:28;;;;;;;12.23;11.13;;;17.30;99.90;;;;;;2613499;54;20235;-76
2022/07/01 08:01:15;;;;;;;14.33;11.20;;;17.10;99.90;;;;;;2614880;54;20474;-75
2022/07/01 08:07:03;;;;;;;11.67;10.53;;;17.60;99.90;;;;;;2614946;54;20129;-76
2022/07/01 08:12:51;;;;;;;10.73;9.90;;;17.60;99.90;;;;;;2614356;54;20168;-77
2022/07/01 08:18:38;;;;;;;10.77;9.87;;;17.70;99.90;;;;;;2614532;54;20161;-76
2022/07/01 08:21:42;;;;;;;12.13;11.03;;;17.80;99.90;;;;;;2614483;54;20418;-75
2022/07/01 08:24:07;;;;;;;12.63;10.70;;;17.60;99.90;;;;;;2614176;54;20172;-76
2022/07/01 08:29:55;;;;;;;9.87;8.80;;;17.80;99.90;;;;;;2614620;46;20152;-75
2022/07/01 08:35:43;;;;;;;8.70;7.17;;;18.10;99.90;;;;;;2614651;54;20264;-75
2022/07/01 08:41:31;;;;;;;10.83;7.90;;;18.30;99.90;;;;;;2614761;54;20133;-76
2022/07/01 08:47:18;;;;;;;7.93;6.90;;;19.90;99.90;;;;;;2615284;39;20649;-76
2022/07/01 08:53:08;;;;;;;8.00;7.27;;;20.00;99.90;;;;;;2614911;54;20223;-75
2022/07/01 08:58:26;;;;;;;8.47;7.67;;;19.40;99.90;;;;;;2614771;54;20515;-75
2022/07/01 09:04:16;;;;;;;9.07;8.17;;;19.20;99.90;;;;;;2614957;54;20471;-76
2022/07/01 09:10:18;;;;;;;8.50;7.70;;;20.00;99.10;;;;;;2614868;54;20430;-75
2022/07/01 09:16:16;;;;;;;7.53;6.83;;;21.00;88.00;;;;;;2614664;54;20371;-75
2022/07/01 09:22:05;;;;;;;4.40;4.07;;;21.20;80.50;;;;;;2615526;39;20865;-75
2022/07/01 09:41:03;;;;;;;5.63;4.37;;;20.20;63.60;;;;;;2613303;54;20383;-76
2022/07/01 09:50:12;;;;;;;5.10;4.70;;;21.30;39.90;;;;;;2613289;54;20514;-74
2022/07/01 10:16:34;;;;;;;7.80;4.73;;;20.30;50.70;;;;;;2613109;54;20391;-75
2022/07/01 10:22:28;;;;;;;10.03;4.73;;;20.30;47.80;;;;;;2613401;54;20971;-76
2022/07/01 10:28:16;;;;;;;4.27;3.80;;;20.10;40.10;;;;;;2613762;54;21010;-75
2022/07/01 10:34:04;;;;;;;4.87;3.73;;;21.10;28.70;;;;;;2614240;54;20278;-75
2022/07/01 10:39:53;;;;;;;6.00;4.47;;;21.50;22.70;;;;;;2614214;54;20383;-75
2022/07/01 10:45:45;;;;;;;7.97;4.30;;;21.70;18.90;;;;;;2614249;54;20406;-75
2022/07/01 10:51:57;;;;;;;5.03;4.63;;;20.90;25.50;;;;;;2615720;54;20411;-76
2022/07/01 10:57:44;;;;;;;4.13;3.17;;;22.00;16.80;;;;;;2613941;54;20461;-75
2022/07/01 11:03:39;;;;;;;4.13;3.80;;;21.70;12.20;;;;;;2615444;54;20804;-76
2022/07/01 11:09:26;;;;;;;11.23;4.17;;;20.80;17.10;;;;;;2615071;54;20423;-77
2022/07/01 11:15:15;;;;;;;3.40;2.83;;;21.50;14.00;;;;;;2614633;54;20253;-75
2022/07/01 11:21:10;;;;;;;5.27;3.53;;;22.50;1.00;;;;;;2613082;54;20407;-76
2022/07/01 11:27:07;;;;;;;5.00;2.90;;;21.70;7.20;;;;;;2614547;54;20433;-75
2022/07/01 11:32:58;;;;;;;5.73;2.90;;;21.80;6.70;;;;;;2613356;54;20507;-75
2022/07/01 11:44:52;;;;;;;3.80;2.70;;;21.30;5.90;;;;;;2611973;54;20367;-76
2022/07/01 11:50:39;;;;;;;5.37;3.27;;;21.70;5.20;;;;;;2614545;54;20226;-75
2022/07/01 12:06:39;;;;;;;4.30;2.83;;;23.50;1.00;;;;;;2612805;54;20415;-76
2022/07/01 12:12:27;;;;;;;4.00;3.70;;;22.50;1.00;;;;;;2612866;54;20571;-76
2022/07/01 12:18:15;;;;;;;3.47;3.17;;;22.30;2.20;;;;;;2611493;54;20475;-76
2022/07/01 12:58:05;;;;;;;4.97;2.93;;;24.10;1.00;;;;;;2612285;54;20443;-76
2022/07/01 13:00:50;;;;;;;3.80;2.97;;;23.70;1.00;;;;;;2613001;54;20503;-76
2022/07/01 13:06:37;;;;;;;4.10;2.70;;;22.60;1.00;;;;;;2612052;54;20429;-76
2022/07/01 13:12:24;;;;;;;2.30;2.10;;;22.40;1.00;;;;;;2613767;54;20338;-76
2022/07/01 13:18:14;;;;;;;2.60;2.40;;;22.50;1.00;;;;;;2612851;54;20738;-75
2022/07/01 13:24:01;;;;;;;4.33;2.80;;;22.70;1.00;;;;;;2613601;54;20401;-75
2022/07/01 13:29:49;;;;;;;2.90;2.60;;;23.70;1.00;;;;;;2613759;54;20147;-75
2022/07/01 13:35:36;;;;;;;4.60;2.53;;;23.90;1.00;;;;;;2613786;39;20742;-75
2022/07/01 13:41:24;;;;;;;3.10;2.30;;;23.10;1.00;;;;;;2613594;54;20126;-75
2022/07/01 13:47:14;;;;;;;4.23;2.67;;;24.20;1.00;;;;;;2614467;54;20136;-75
2022/07/01 13:53:02;;;;;;;3.73;2.70;;;25.00;1.00;;;;;;2615204;54;20430;-75
2022/07/01 14:12:45;;;;;;;5.07;3.10;;;23.50;1.00;;;;;;2609486;54;20474;-75
2022/07/01 14:18:33;;;;;;;4.77;3.20;;;23.70;1.00;;;;;;2611226;46;20146;-74
2022/07/01 14:21:36;;;;;;;3.17;2.90;;;23.40;1.00;;;;;;2613451;47;20445;-75
2022/07/01 14:24:05;;;;;;;3.67;3.13;;;23.20;1.00;;;;;;2611860;52;20415;-76
2022/07/01 14:29:52;;;;;;;4.40;2.83;;;24.10;1.00;;;;;;2613689;54;21271;-75
2022/07/01 14:35:39;;;;;;;7.17;3.00;;;23.90;1.00;;;;;;2612016;54;20876;-75
2022/07/01 14:41:27;;;;;;;4.67;3.20;;;22.90;1.00;;;;;;2615414;54;20317;-75
2022/07/01 14:47:15;;;;;;;4.37;2.60;;;22.80;1.00;;;;;;2615406;54;20178;-75
2022/07/01 14:53:07;;;;;;;3.73;2.73;;;23.30;1.00;;;;;;2615439;39;20510;-75
2022/07/01 15:09:12;;;;;;;2.97;2.60;;;23.10;1.00;;;;;;2612554;54;20425;-75
2022/07/01 15:14:59;;;;;;;3.70;2.67;;;22.30;1.00;;;;;;2613318;39;20232;-75
2022/07/01 15:20:46;;;;;;;3.10;2.53;;;23.60;1.00;;;;;;2608950;54;20180;-76
2022/07/01 15:26:33;;;;;;;4.13;3.30;;;23.30;1.00;;;;;;2608663;54;20150;-76
2022/07/01 15:32:21;;;;;;;6.43;3.90;;;23.30;1.00;;;;;;2612474;54;20153;-76
2022/07/01 15:38:08;;;;;;;3.20;3.00;;;22.70;1.00;;;;;;2609029;54;20138;-74
2022/07/01 15:43:55;;;;;;;3.67;3.00;;;23.00;1.00;;;;;;2615757;39;20537;-75
2022/07/01 15:49:43;;;;;;;3.57;3.27;;;23.90;1.00;;;;;;2614020;54;20693;-75
2022/07/01 15:55:30;;;;;;;3.67;3.20;;;24.00;1.00;;;;;;2611241;54;20248;-75
2022/07/01 16:01:18;;;;;;;4.47;2.93;;;24.20;1.00;;;;;;2612938;54;20161;-74
2022/07/01 16:07:12;;;;;;;8.73;3.00;;;23.90;1.00;;;;;;2612928;54;20160;-76
2022/07/01 16:13:02;;;;;;;3.37;3.07;;;23.70;1.00;;;;;;2611512;46;20388;-74
2022/07/01 16:18:51;;;;;;;2.93;2.73;;;22.80;1.00;;;;;;2611475;54;20402;-76
2022/07/01 16:24:41;;;;;;;2.90;2.67;;;22.70;1.00;;;;;;2611468;54;20972;-74
2022/07/01 16:30:29;;;;;;;3.50;2.93;;;23.30;1.00;;;;;;2614263;54;20384;-74
2022/07/01 16:42:48;;;;;;;3.83;3.47;;;22.20;1.00;;;;;;2614793;39;20781;-75
2022/07/01 16:48:36;;;;;;;3.37;3.07;;;22.40;1.00;;;;;;2613806;54;20387;-74
2022/07/01 16:54:26;;;;;;;3.30;3.10;;;21.80;1.00;;;;;;2613754;54;20356;-74
2022/07/01 17:03:37;;;;;;;2.90;2.70;;;21.40;1.00;;;;;;2614137;39;20791;-74
2022/07/01 17:09:28;;;;;;;4.97;2.80;;;21.60;1.00;;;;;;2613925;54;20431;-75
2022/07/01 17:15:17;;;;;;;7.00;3.30;;;21.60;1.00;;;;;;2613788;54;20384;-74
2022/07/01 17:21:05;;;;;;;3.20;3.00;;;21.70;1.00;;;;;;2612502;54;20975;-74
2022/07/01 17:33:27;;;;;;;3.20;3.00;;;22.80;1.00;;;;;;2615507;54;20366;-73
2022/07/01 17:39:16;;;;;;;3.60;3.40;;;22.70;1.00;;;;;;2615467;54;20406;-74
2022/07/01 17:45:06;;;;;;;3.43;3.13;;;21.70;1.00;;;;;;2615194;54;20407;-74
2022/07/01 17:50:54;;;;;;;3.20;3.00;;;21.70;1.00;;;;;;2614392;54;20546;-74
2022/07/01 17:56:43;;;;;;;3.20;3.00;;;21.60;1.00;;;;;;2614697;54;20415;-74
2022/07/01 18:02:35;;;;;;;3.40;3.10;;;21.50;1.00;;;;;;2615539;54;20496;-75
2022/07/01 18:08:23;;;;;;;3.87;3.53;;;21.60;1.00;;;;;;2615078;54;20387;-75
2022/07/01 18:14:29;;;;;;;5.10;2.80;;;21.60;1.00;;;;;;2614246;54;20226;-75
2022/07/01 18:26:47;;;;;;;2.83;2.63;;;21.00;1.00;;;;;;2611106;54;20423;-74
2022/07/01 18:32:38;;;;;;;3.33;3.13;;;20.90;1.00;;;;;;2610833;54;20398;-74
2022/07/01 18:38:26;;;;;;;3.30;3.10;;;20.80;1.00;;;;;;2613717;54;20419;-75
2022/07/01 18:44:13;;;;;;;3.60;3.30;;;20.80;1.00;;;;;;2611501;39;20563;-74
2022/07/01 18:50:03;;;;;;;3.10;2.80;;;20.60;1.00;;;;;;2614984;54;20639;-74
2022/07/01 18:55:50;;;;;;;4.13;3.10;;;20.40;1.00;;;;;;2611362;54;20393;-76
2022/07/01 19:01:53;;;;;;;4.60;3.47;;;20.40;1.00;;;;;;2608656;54;20156;-76
2022/07/01 19:07:40;;;;;;;2.90;2.70;;;20.10;1.00;;;;;;2610058;54;20175;-76
2022/07/01 19:13:28;;;;;;;3.67;3.37;;;19.80;1.00;;;;;;2611098;54;20433;-76
2022/07/01 19:19:15;;;;;;;3.47;3.27;;;19.60;3.40;;;;;;2610269;54;20393;-75
2022/07/01 19:25:03;;;;;;;3.93;3.20;;;19.40;5.70;;;;;;2611326;54;20133;-76
2022/07/01 19:30:51;;;;;;;2.83;2.63;;;19.20;9.60;;;;;;2608139;54;20366;-75
2022/07/01 19:36:38;;;;;;;4.00;2.80;;;19.00;13.20;;;;;;2610279;39;20546;-76
2022/07/01 19:42:27;;;;;;;3.90;3.60;;;18.90;14.70;;;;;;2610064;54;20954;-76
2022/07/01 19:48:15;;;;;;;5.23;3.50;;;18.70;19.90;;;;;;2611677;54;20402;-75
2022/07/01 19:54:04;;;;;;;7.03;3.87;;;18.50;22.10;;;;;;2610893;54;20382;-76
2022/07/01 20:10:02;;;;;;;6.17;3.03;;;18.10;30.60;;;;;;2610248;54;21007;-76
2022/07/01 20:15:50;;;;;;;3.57;3.27;;;17.80;36.30;;;;;;2613126;54;20523;-75
2022/07/01 20:21:38;;;;;;;3.63;2.80;;;17.60;40.00;;;;;;2611211;54;20136;-75
2022/07/01 20:27:24;;;;;;;4.57;3.70;;;17.50;46.40;;;;;;2609308;54;20442;-76
2022/07/01 20:33:12;;;;;;;5.13;3.90;;;17.30;52.90;;;;;;2609973;39;20670;-76
2022/07/01 20:39:00;;;;;;;5.13;3.57;;;17.10;58.90;;;;;;2609692;54;20473;-75
2022/07/01 20:44:47;;;;;;;4.87;3.47;;;17.20;59.00;;;;;;2611645;54;20422;-74
2022/07/01 20:50:35;;;;;;;3.50;3.20;;;16.90;77.10;;;;;;2609920;54;20129;-75
2022/07/01 20:56:22;;;;;;;5.53;3.67;;;16.60;92.40;;;;;;2609774;54;20252;-74
2022/07/01 21:05:32;;;;;;;4.43;3.60;;;16.50;99.90;;;;;;2610528;54;20450;-74
2022/07/01 21:11:20;;;;;;;5.30;3.53;;;16.60;99.90;;;;;;2611208;39;20968;-74
2022/07/01 21:17:08;;;;;;;5.47;3.97;;;16.40;99.90;;;;;;2610645;54;20132;-74
2022/07/01 21:22:59;;;;;;;4.47;4.07;;;16.30;99.90;;;;;;2610540;54;20440;-74
2022/07/01 21:28:47;;;;;;;5.73;3.67;;;16.00;99.90;;;;;;2611121;54;20437;-74
2022/07/01 21:34:35;;;;;;;4.57;3.97;;;16.00;99.90;;;;;;2614131;54;20134;-73
2022/07/01 21:40:25;;;;;;;4.20;3.90;;;15.70;99.90;;;;;;2615206;54;20653;-74
2022/07/01 21:46:13;;;;;;;9.07;5.60;;;15.50;99.90;;;;;;2614764;54;20416;-72
2022/07/01 21:52:03;;;;;;;7.67;4.50;;;15.50;99.90;;;;;;2614856;54;20383;-74
2022/07/01 21:57:53;;;;;;;8.63;4.37;;;15.40;99.90;;;;;;2614559;54;20583;-73
2022/07/01 22:03:47;;;;;;;4.90;4.50;;;15.40;99.90;;;;;;2612929;54;20472;-73
2022/07/01 22:09:34;;;;;;;5.10;4.63;;;15.30;99.90;;;;;;2612671;54;20627;-76
2022/07/01 22:15:22;;;;;;;7.60;4.50;;;15.00;99.90;;;;;;2612824;54;20998;-76
2022/07/01 22:21:12;;;;;;;4.90;4.03;;;14.90;99.90;;;;;;2614037;54;20149;-77
2022/07/01 22:30:21;;;;;;;10.17;4.90;;;15.00;99.90;;;;;;2613703;54;20367;-76
2022/07/01 22:36:10;;;;;;;7.63;5.00;;;15.00;99.90;;;;;;2613857;54;20384;-77
2022/07/01 22:41:57;;;;;;;5.07;4.67;;;14.80;99.90;;;;;;2614070;54;20513;-76
2022/07/01 22:47:46;;;;;;;6.63;5.13;;;14.60;99.90;;;;;;2614948;54;20512;-77
2022/07/01 23:10:06;;;;;;;8.53;5.20;;;14.30;99.90;;;;;;2613732;54;20427;-75
2022/07/01 23:22:02;;;;;;;6.57;5.87;;;14.20;99.90;;;;;;2613594;54;20392;-74
2022/07/01 23:27:52;;;;;;;6.20;5.70;;;14.20;99.90;;;;;;2613889;54;20387;-75
2022/07/01 23:37:01;;;;;;;9.87;6.40;;;14.00;99.90;;;;;;2613913;31;20947;-76
2022/07/01 23:42:48;;;;;;;7.50;6.70;;;14.00;99.90;;;;;;2613633;54;20413;-74
2022/07/01 23:48:37;;;;;;;9.43;5.03;;;14.10;99.90;;;;;;2614872;54;20628;-76
2022/07/01 23:54:25;;;;;;;8.27;6.50;;;14.00;99.90;;;;;;2614526;54;20411;-75
